createdAt,value
2023-02-22T00:03:42.163Z,10
2023-02-22T00:08:42.262Z,11
2023-02-22T00:13:42.091Z,10
2023-02-22T00:18:42.072Z,10
2023-02-22T00:23:42.193Z,9
2023-02-22T00:28:42.565Z,9
2023-02-22T00:33:42.126Z,8
2023-02-22T00:38:42.161Z,10
2023-02-22T00:43:42.268Z,10
2023-02-22T00:48:42.125Z,10
2023-02-22T00:53:42.157Z,12
2023-02-22T00:58:43.672Z,12
2023-02-22T01:03:43.091Z,12
2023-02-22T01:08:42.175Z,13
2023-02-22T01:13:42.211Z,15
2023-02-22T01:18:42.327Z,14
2023-02-22T01:23:42.194Z,14
2023-02-22T01:28:42.316Z,16
2023-02-22T01:33:42.365Z,17
2023-02-22T01:38:42.226Z,17
2023-02-22T01:43:42.257Z,17
2023-02-22T01:48:42.339Z,18
2023-02-22T01:53:42.263Z,17
2023-02-22T01:58:42.384Z,18
2023-02-22T02:03:42.321Z,16
2023-02-22T02:08:42.256Z,17
2023-02-22T02:13:42.428Z,19
2023-02-22T02:18:42.694Z,18
2023-02-22T02:23:43.112Z,17
2023-02-22T02:28:42.299Z,18
2023-02-22T02:33:42.461Z,19
2023-02-22T02:38:43.202Z,18
2023-02-22T02:43:42.332Z,17
2023-02-22T02:48:42.449Z,16
2023-02-22T02:53:42.362Z,17
2023-02-22T02:58:42.361Z,18
2023-02-22T03:03:42.603Z,19
2023-02-22T03:08:42.423Z,18
2023-02-22T03:13:42.635Z,20
2023-02-22T03:18:42.395Z,19
2023-02-22T03:23:42.403Z,20
2023-02-22T03:28:42.468Z,20
2023-02-22T03:33:42.554Z,20
2023-02-22T03:38:42.424Z,22
2023-02-22T03:43:43.163Z,21
2023-02-22T03:48:42.455Z,21
2023-02-22T03:53:42.691Z,20
2023-02-22T03:58:42.590Z,21
2023-02-22T04:03:42.581Z,22
2023-02-22T04:08:42.481Z,21
2023-02-22T04:13:42.797Z,19
2023-02-22T04:18:42.492Z,18
2023-02-22T04:23:42.606Z,19
2023-02-22T04:28:42.518Z,21
2023-02-22T04:33:42.759Z,16
2023-02-22T04:38:42.530Z,16
2023-02-22T04:43:42.847Z,16
2023-02-22T04:48:42.648Z,16
2023-02-22T04:53:42.690Z,20
2023-02-22T04:58:42.565Z,17
2023-02-22T05:03:42.583Z,19
2023-02-22T05:08:42.576Z,19
2023-02-22T05:13:42.628Z,19
2023-02-22T05:18:42.632Z,19
2023-02-22T05:23:42.621Z,19
2023-02-22T05:28:42.612Z,18
2023-02-22T05:33:42.776Z,19
2023-02-22T05:38:42.754Z,18
2023-02-22T05:43:44.497Z,19
2023-02-22T05:48:43.380Z,18
2023-02-22T05:53:42.722Z,21
2023-02-22T05:58:42.684Z,24
2023-02-22T06:03:42.794Z,24
2023-02-22T06:08:42.892Z,32
2023-02-22T06:13:42.925Z,22
2023-02-22T06:18:42.837Z,36
2023-02-22T06:23:43.725Z,36
2023-02-22T06:28:42.840Z,24
2023-02-22T06:33:42.877Z,24
2023-02-22T06:38:42.738Z,26
2023-02-22T06:43:42.777Z,23
2023-02-22T06:48:42.959Z,25
2023-02-22T06:53:42.868Z,24
2023-02-22T06:58:42.772Z,23
2023-02-22T07:03:42.851Z,27
2023-02-22T07:08:42.802Z,25
2023-02-22T07:13:42.944Z,25
2023-02-22T07:18:42.826Z,24
2023-02-22T07:23:42.821Z,26
2023-02-22T07:28:42.956Z,24
2023-02-22T07:33:44.185Z,22
2023-02-22T07:38:42.949Z,23
2023-02-22T07:43:43.680Z,25
2023-02-22T07:48:42.967Z,26
2023-02-22T07:53:42.904Z,27
2023-02-22T07:58:42.872Z,25
2023-02-22T08:03:42.925Z,30
2023-02-22T08:08:42.918Z,33
2023-02-22T08:13:42.956Z,33
2023-02-22T08:18:42.928Z,26
2023-02-22T08:23:42.927Z,26
2023-02-22T08:28:42.939Z,25
2023-02-22T08:33:43.854Z,28
2023-02-22T08:38:42.956Z,26
2023-02-22T08:43:42.962Z,26
2023-02-22T08:48:43.086Z,26
2023-02-22T08:53:43.109Z,30
2023-02-22T08:58:42.991Z,25
2023-02-22T09:03:43.001Z,27
2023-02-22T09:08:43.113Z,27
2023-02-22T09:13:43.034Z,29
2023-02-22T09:18:44.438Z,30
2023-02-22T09:23:43.024Z,29
2023-02-22T09:28:43.422Z,28
2023-02-22T09:33:45.083Z,34
2023-02-22T09:38:43.053Z,28
2023-02-22T09:43:43.449Z,27
2023-02-22T09:48:43.276Z,29
2023-02-22T09:53:43.212Z,29
2023-02-22T09:58:43.214Z,31
2023-02-22T10:03:43.866Z,25
2023-02-22T10:08:43.312Z,27
2023-02-22T10:13:43.200Z,26
2023-02-22T10:18:43.134Z,25
2023-02-22T10:23:43.260Z,25
2023-02-22T10:28:43.256Z,23
2023-02-22T10:33:43.300Z,30
2023-02-22T10:38:43.158Z,24
2023-02-22T10:43:43.708Z,23
2023-02-22T10:48:43.187Z,24
2023-02-22T10:53:43.325Z,23
2023-02-22T10:58:43.202Z,26
2023-02-22T11:03:43.464Z,23
2023-02-22T11:08:43.338Z,33
2023-02-22T11:13:43.413Z,25
2023-02-22T11:18:43.239Z,24
2023-02-22T11:23:44.911Z,26
2023-02-22T11:28:43.583Z,27
2023-02-22T11:33:43.356Z,26
2023-02-22T11:38:43.889Z,24
2023-02-22T11:43:45.634Z,24
2023-02-22T11:48:43.556Z,25
2023-02-22T11:53:43.331Z,24
2023-02-22T11:58:43.318Z,23
2023-02-22T12:03:43.457Z,26
2023-02-22T12:08:43.436Z,22
2023-02-22T12:13:43.408Z,23
2023-02-22T12:18:43.364Z,22
2023-02-22T12:23:43.358Z,23
2023-02-22T12:28:43.406Z,23
2023-02-22T12:33:43.459Z,24
2023-02-22T12:38:43.793Z,20
2023-02-22T12:43:43.407Z,22
2023-02-22T12:48:43.544Z,23
2023-02-22T12:53:43.473Z,24
2023-02-22T12:58:43.543Z,23
2023-02-22T13:03:43.496Z,23
2023-02-22T13:08:45.073Z,23
2023-02-22T13:13:44.029Z,25
2023-02-22T13:18:43.534Z,22
2023-02-22T13:23:43.478Z,22
2023-02-22T13:28:43.608Z,22
2023-02-22T13:33:43.635Z,24
2023-02-22T13:38:43.505Z,22
2023-02-22T13:43:43.495Z,23
2023-02-22T13:48:43.520Z,22
2023-02-22T13:53:43.670Z,23
2023-02-22T13:58:43.645Z,25
2023-02-22T14:03:44.051Z,25
2023-02-22T14:08:43.740Z,28
2023-02-22T14:13:43.577Z,24
2023-02-22T14:18:44.482Z,25
2023-02-22T14:23:44.281Z,27
2023-02-22T14:28:43.703Z,24
2023-02-22T14:33:44.255Z,21
2023-02-22T14:38:43.602Z,28
2023-02-22T14:43:43.606Z,19
2023-02-22T14:48:45.401Z,21
2023-02-22T14:53:43.691Z,23
2023-02-22T14:58:43.636Z,23
2023-02-22T15:03:45.358Z,19
2023-02-22T15:08:44.357Z,21
2023-02-22T15:13:43.780Z,20
2023-02-22T15:18:43.673Z,20
2023-02-22T15:23:43.747Z,18
2023-02-22T15:28:44.238Z,19
2023-02-22T15:33:43.753Z,20
2023-02-22T15:38:43.709Z,19
2023-02-22T15:43:43.825Z,22
2023-02-22T15:48:43.807Z,22
2023-02-22T15:53:43.798Z,21
2023-02-22T15:58:43.855Z,23
2023-02-22T16:03:43.765Z,23
2023-02-22T16:08:54.258Z,22
2023-02-22T16:13:43.810Z,23
2023-02-22T16:18:43.789Z,24
2023-02-22T16:23:44.296Z,25
2023-02-22T16:28:44.441Z,21
2023-02-22T16:33:45.588Z,22
2023-02-22T16:38:43.811Z,22
2023-02-22T16:43:45.571Z,22
2023-02-22T16:48:44.339Z,21
2023-02-22T16:53:43.900Z,20
2023-02-22T16:58:44.363Z,20
2023-02-22T17:03:44.373Z,22
2023-02-22T17:08:45.557Z,22
2023-02-22T17:13:43.878Z,21
2023-02-22T17:18:43.903Z,23
2023-02-22T17:23:44.870Z,23
2023-02-22T17:28:44.464Z,24
2023-02-22T17:33:43.927Z,25
2023-02-22T17:38:43.930Z,24
2023-02-22T17:43:44.446Z,22
2023-02-22T17:48:43.971Z,24
2023-02-22T17:53:44.470Z,24
2023-02-22T17:58:44.491Z,22
2023-02-22T18:03:43.976Z,24
2023-02-22T18:08:43.997Z,23
2023-02-22T18:13:44.279Z,24
2023-02-22T18:18:44.010Z,25
2023-02-22T18:23:47.247Z,24
2023-02-22T18:28:44.008Z,24
2023-02-22T18:33:44.033Z,25
2023-02-22T18:38:44.023Z,25
2023-02-22T18:43:44.573Z,26
2023-02-22T18:48:44.051Z,25
2023-02-22T18:53:46.992Z,26
2023-02-22T18:58:44.351Z,23
2023-02-22T19:03:44.136Z,26
2023-02-22T19:08:44.593Z,25
2023-02-22T19:13:44.597Z,26
2023-02-22T19:18:44.279Z,25
2023-02-22T19:23:44.729Z,24
2023-02-22T19:28:44.123Z,26
2023-02-22T19:33:44.129Z,26
2023-02-22T19:38:44.154Z,26
2023-02-22T19:44:02.238Z,26
2023-02-22T19:48:44.177Z,29
2023-02-22T19:53:44.223Z,29
2023-02-22T19:58:44.687Z,28
2023-02-22T20:03:50.812Z,33
2023-02-22T20:08:50.117Z,32
2023-02-22T20:13:47.840Z,32
2023-02-22T20:18:44.217Z,32
2023-02-22T20:24:17.940Z,27
2023-02-22T20:28:44.227Z,27
2023-02-22T20:33:44.308Z,28
2023-02-22T20:38:44.295Z,27
2023-02-22T20:43:44.786Z,29
2023-02-22T20:48:59.835Z,29
2023-02-22T20:53:44.278Z,29
2023-02-22T20:58:44.791Z,33
2023-02-22T21:03:49.698Z,34
2023-02-22T21:08:44.802Z,32
2023-02-22T21:13:44.829Z,31
2023-02-22T21:18:44.326Z,33
2023-02-22T21:23:44.369Z,35
2023-02-22T21:28:52.096Z,36
2023-02-22T21:33:44.352Z,32
2023-02-22T21:38:44.361Z,34
2023-02-22T21:43:44.901Z,35
2023-02-22T21:48:44.373Z,35
2023-02-22T21:53:44.395Z,31
2023-02-22T21:58:44.400Z,33
2023-02-22T22:03:44.433Z,30
2023-02-22T22:08:44.409Z,36
2023-02-22T22:13:45.530Z,34
2023-02-22T22:18:44.565Z,33
2023-02-22T22:23:44.480Z,33
2023-02-22T22:28:44.445Z,33
2023-02-22T22:33:44.463Z,33
2023-02-22T22:38:44.981Z,33
2023-02-22T22:43:44.507Z,30
2023-02-22T22:48:44.563Z,33
2023-02-22T22:53:45.699Z,37
2023-02-22T22:58:44.496Z,40
2023-02-22T23:03:44.634Z,60
2023-02-22T23:08:45.215Z,35
2023-02-22T23:13:44.525Z,40
2023-02-22T23:18:45.039Z,32
2023-02-22T23:23:44.581Z,40
2023-02-22T23:28:44.566Z,55
2023-02-22T23:33:44.567Z,77
2023-02-22T23:38:45.079Z,85
2023-02-22T23:43:44.611Z,49
2023-02-22T23:48:44.600Z,52
2023-02-22T23:53:52.340Z,41
2023-02-22T23:58:44.613Z,33
